9OI9 weather

Riverside Methodist Hospital Heliport
Columbus, Ohio, United States

Public forecast

Using degrees Fahrenheit for public forecast. Weather courtesy of forecast.io.

Closest aviation weather report (METAR) to Riverside Methodist Hospital Heliport

Closest report is The Ohio State University Airport - Don Scott Field, 3.4 nm (6.3 km) NNW. Retrieved 2020/05/29 00:53 UTC (57 minutes ago):

KOSU 290053Z 19005KT 10SM CLR 25/16 A2992 RMK AO2 SLP125 T02500156

Closest aviation forecast (TAF) to Riverside Methodist Hospital Heliport

Closest forecast is John Glenn Columbus International Airport, 6.9 nm (12.7 km) ESE. Retrieved 2020-05-29 00:22 UTC (1 hour ago):

TAF KCMH 282320Z 2900/2924 20006KT P6SM VCSH SCT040 BKN100 FM290700 19005KT P6SM SCT060 FM291300 22012KT P6SM BKN060 FM291600 22014G22KT P6SM VCSH BKN035 FM291800 23012G20KT P6SM VCTS BKN040CB FM292300 31012KT P6SM VCSH BKN060